Time;durP1;ratioP1;P1;durP2;ratioP2;P2;SDS_P1;SDS_P2;PMS_P1;PMS_P2;Temp;Humidity;BMP_temperature;BMP_pressure;BME280_temperature;BME280_humidity;BME280_pressure;Samples;Min_cycle;Max_cycle;Signal;HPM_P1;HPM_P2
2022/07/18 00:01:32;;;;;;;2.67;1.60;;;16.60;70.40;;;;;;5066741;28;20169;-86
2022/07/18 00:03:58;;;;;;;7.60;1.70;;;16.70;69.60;;;;;;5074923;28;20245;-85
2022/07/18 00:06:24;;;;;;;2.30;1.30;;;16.80;71.00;;;;;;5073413;28;20527;-88
2022/07/18 00:08:50;;;;;;;2.47;2.00;;;18.40;72.30;;;;;;5071253;28;20442;-86
2022/07/18 00:11:16;;;;;;;1.87;1.43;;;17.60;71.80;;;;;;5070015;28;20471;-86
2022/07/18 00:13:41;;;;;;;3.63;1.57;;;16.70;70.30;;;;;;5066112;28;20447;-86
2022/07/18 00:16:07;;;;;;;4.07;1.60;;;16.70;70.00;;;;;;5055623;28;20205;-86
2022/07/18 00:18:33;;;;;;;3.93;1.70;;;;;;;;;;5055618;28;20256;-85
2022/07/18 00:20:58;;;;;;;1.93;1.40;;;16.60;68.00;;;;;;5061604;28;20634;-86
2022/07/18 00:23:24;;;;;;;1.77;1.03;;;16.50;68.20;;;;;;5059993;28;20528;-86
2022/07/18 00:25:50;;;;;;;2.57;1.37;;;16.50;69.00;;;;;;5055175;28;20557;-88
2022/07/18 00:28:16;;;;;;;2.23;1.40;;;16.50;69.40;;;;;;5057956;28;20187;-88
2022/07/18 00:30:42;;;;;;;2.20;1.33;;;16.60;71.00;;;;;;5055315;28;20248;-89
2022/07/18 00:33:08;;;;;;;1.60;1.23;;;;;;;;;;5058602;28;20188;-89
2022/07/18 00:35:34;;;;;;;1.70;1.30;;;16.60;68.20;;;;;;5062791;28;20447;-86
2022/07/18 00:38:01;;;;;;;3.50;1.00;;;16.60;68.30;;;;;;5054018;28;21158;-86
2022/07/18 00:40:27;;;;;;;2.53;2.33;;;16.50;66.40;;;;;;5049129;28;20450;-88
2022/07/18 00:42:53;;;;;;;2.50;1.80;;;16.40;64.10;;;;;;5056719;28;20837;-87
2022/07/18 00:45:18;;;;;;;4.37;1.53;;;16.50;63.90;;;;;;5047107;28;22057;-85
2022/07/18 00:47:44;;;;;;;7.00;0.90;;;16.30;63.80;;;;;;5058061;28;20707;-88
2022/07/18 00:50:10;;;;;;;2.40;1.10;;;17.80;68.70;;;;;;5048744;28;20215;-88
2022/07/18 00:52:36;;;;;;;1.37;1.10;;;16.40;67.90;;;;;;5054026;28;20172;-85
2022/07/18 00:55:06;;;;;;;2.87;1.13;;;16.40;68.50;;;;;;5052057;28;20444;-87
2022/07/18 00:57:32;;;;;;;2.07;1.50;;;16.30;68.90;;;;;;5056252;28;20341;-89
2022/07/18 01:02:42;;;;;;;1.37;1.00;;;16.20;69.40;;;;;;5051026;28;20249;-86
2022/07/18 01:05:08;;;;;;;2.50;1.23;;;16.10;68.00;;;;;;5054122;28;20597;-88
2022/07/18 01:07:35;;;;;;;1.87;1.03;;;16.10;68.50;;;;;;5060469;28;20516;-88
2022/07/18 01:10:01;;;;;;;2.25;1.20;;;15.90;73.00;;;;;;5061496;28;20424;-88
2022/07/18 01:12:28;;;;;;;1.60;1.00;;;15.80;72.40;;;;;;5053736;28;20196;-88
2022/07/18 01:14:55;;;;;;;5.87;1.70;;;15.70;72.50;;;;;;5054330;28;23294;-87
2022/07/18 01:17:21;;;;;;;3.08;1.85;;;15.60;73.90;;;;;;5050334;28;20231;-87
2022/07/18 01:19:47;;;;;;;1.57;1.47;;;;;;;;;;5052851;28;21886;-88
2022/07/18 01:22:14;;;;;;;1.67;1.20;;;15.50;71.90;;;;;;5053845;28;20506;-88
2022/07/18 01:24:40;;;;;;;1.90;1.20;;;15.50;71.90;;;;;;5050379;28;20473;-87
2022/07/18 01:27:06;;;;;;;3.70;1.33;;;15.50;71.40;;;;;;5050710;28;20459;-88
2022/07/18 01:29:32;;;;;;;1.33;1.10;;;15.70;71.70;;;;;;5051587;28;20442;-86
2022/07/18 01:32:04;;;;;;;2.23;1.30;;;15.50;73.80;;;;;;5060910;23;20189;-84
2022/07/18 01:34:30;;;;;;;2.13;1.40;;;15.80;75.00;;;;;;4996354;28;20195;-85
2022/07/18 01:36:55;;;;;;;2.30;1.53;;;15.50;75.00;;;;;;5026272;28;20225;-84
2022/07/18 01:39:21;;;;;;;1.60;1.00;;;15.50;75.20;;;;;;5001728;28;20190;-85
2022/07/18 01:41:55;;;;;;;3.20;1.30;;;15.40;73.60;;;;;;5013905;28;20190;-84
2022/07/18 01:44:20;;;;;;;2.13;1.03;;;15.40;74.00;;;;;;5001683;28;20282;-84
2022/07/18 01:46:46;;;;;;;1.93;1.10;;;15.40;73.40;;;;;;5013761;28;20441;-85
2022/07/18 01:49:11;;;;;;;7.03;1.53;;;15.40;74.30;;;;;;4993044;28;20183;-85
2022/07/18 01:51:36;;;;;;;1.30;1.00;;;15.40;74.10;;;;;;4997124;28;20194;-83
2022/07/18 01:54:02;;;;;;;2.53;1.13;;;16.30;74.20;;;;;;5007304;28;20225;-84
2022/07/18 01:56:28;;;;;;;2.60;1.00;;;15.30;73.50;;;;;;5009198;28;22210;-85
2022/07/18 01:58:54;;;;;;;2.97;1.47;;;15.30;74.50;;;;;;5006911;28;20179;-84
2022/07/18 02:01:19;;;;;;;1.90;0.87;;;15.30;74.40;;;;;;4999807;28;20178;-85
2022/07/18 02:03:45;;;;;;;1.93;1.27;;;15.30;74.50;;;;;;5010617;28;20467;-84
2022/07/18 02:06:10;;;;;;;0.77;0.77;;;15.20;74.30;;;;;;5010746;28;20645;-84
2022/07/18 02:08:36;;;;;;;1.17;0.93;;;15.20;73.30;;;;;;5013742;28;20194;-85
2022/07/18 02:11:01;;;;;;;3.40;1.00;;;15.20;72.50;;;;;;5011086;28;20217;-85
2022/07/18 02:13:27;;;;;;;2.03;0.80;;;15.10;71.90;;;;;;5002372;28;20631;-85
2022/07/18 02:15:55;;;;;;;10.07;1.70;;;15.10;71.70;;;;;;4993138;28;20185;-85
2022/07/18 02:18:21;;;;;;;1.42;1.00;;;15.00;71.10;;;;;;4992469;28;20293;-86
2022/07/18 02:20:46;;;;;;;4.30;1.20;;;15.00;70.30;;;;;;5035738;28;20290;-84
2022/07/18 02:23:12;;;;;;;2.83;0.83;;;15.00;71.20;;;;;;5010775;28;20465;-84
2022/07/18 02:25:38;;;;;;;4.20;1.13;;;15.00;73.40;;;;;;5005917;28;20182;-85
2022/07/18 02:28:04;;;;;;;3.57;0.80;;;15.00;73.40;;;;;;5004293;28;20249;-86
2022/07/18 02:30:30;;;;;;;5.47;1.00;;;15.00;71.60;;;;;;5008150;28;20178;-85
2022/07/18 02:32:56;;;;;;;1.60;1.00;;;15.00;71.90;;;;;;4994874;28;20253;-83
2022/07/18 02:35:21;;;;;;;2.60;1.10;;;15.00;71.70;;;;;;5003959;28;20526;-86
2022/07/18 02:37:47;;;;;;;1.47;1.10;;;15.00;72.10;;;;;;5027566;28;20220;-84
2022/07/18 02:40:12;;;;;;;6.43;2.03;;;14.90;72.30;;;;;;5014373;28;20209;-85
2022/07/18 02:42:39;;;;;;;1.90;1.20;;;14.90;72.80;;;;;;5010753;28;20682;-84
2022/07/18 02:45:06;;;;;;;3.60;1.20;;;14.90;73.30;;;;;;5003019;28;20210;-85
2022/07/18 02:47:32;;;;;;;3.28;1.08;;;14.90;74.20;;;;;;4997901;28;20187;-86
2022/07/18 02:49:57;;;;;;;6.40;1.80;;;14.80;74.00;;;;;;5016228;28;20233;-86
2022/07/18 02:52:23;;;;;;;2.10;1.17;;;14.80;75.20;;;;;;5014166;28;20452;-84
2022/07/18 02:54:49;;;;;;;4.13;1.30;;;14.80;78.20;;;;;;5002511;28;20186;-85
2022/07/18 02:57:14;;;;;;;6.63;1.03;;;14.70;79.60;;;;;;4996746;28;20449;-84
2022/07/18 02:59:40;;;;;;;3.30;1.43;;;14.60;79.10;;;;;;4998835;28;20194;-84
2022/07/18 03:02:06;;;;;;;5.53;1.00;;;14.60;78.50;;;;;;4995111;28;20213;-85
2022/07/18 03:04:32;;;;;;;6.63;1.33;;;14.50;78.80;;;;;;5014237;28;20262;-86
2022/07/18 03:06:58;;;;;;;2.30;1.60;;;14.40;80.30;;;;;;5012280;28;20929;-85
2022/07/18 03:09:26;;;;;;;8.93;1.57;;;14.30;82.30;;;;;;5003901;28;20237;-85
2022/07/18 03:11:54;;;;;;;2.08;1.10;;;14.20;81.80;;;;;;5001620;28;22696;-85
2022/07/18 03:14:19;;;;;;;4.68;1.33;;;14.20;83.40;;;;;;5001959;28;20174;-83
2022/07/18 03:16:45;;;;;;;3.17;1.30;;;14.10;85.80;;;;;;5017858;28;20182;-85
2022/07/18 03:19:10;;;;;;;2.20;1.37;;;13.90;87.20;;;;;;5012547;28;20186;-85
2022/07/18 03:21:36;;;;;;;4.60;1.27;;;13.80;91.40;;;;;;5004146;28;20186;-83
2022/07/18 03:24:01;;;;;;;1.93;1.10;;;13.70;91.80;;;;;;5001504;28;20213;-84
2022/07/18 03:26:28;;;;;;;1.40;1.20;;;13.70;92.30;;;;;;5010342;28;20202;-85
2022/07/18 03:28:53;;;;;;;3.78;1.40;;;13.70;92.60;;;;;;4995180;28;20193;-85
2022/07/18 03:31:19;;;;;;;2.00;1.40;;;13.70;92.90;;;;;;4995961;28;20183;-85
2022/07/18 03:33:44;;;;;;;6.13;1.47;;;13.80;93.90;;;;;;5009657;28;20218;-85
2022/07/18 03:36:10;;;;;;;3.50;1.60;;;13.80;94.90;;;;;;5008324;28;20635;-86
2022/07/18 03:38:36;;;;;;;3.00;1.57;;;13.80;94.40;;;;;;5009291;28;20197;-85
2022/07/18 03:41:02;;;;;;;2.40;1.60;;;13.80;93.50;;;;;;5004923;28;20286;-86
2022/07/18 03:43:28;;;;;;;2.03;1.45;;;13.90;93.00;;;;;;4997881;28;20217;-86
2022/07/18 03:45:54;;;;;;;1.73;1.10;;;13.90;93.10;;;;;;4992352;28;20179;-84
2022/07/18 03:48:19;;;;;;;3.00;1.30;;;13.90;93.80;;;;;;5009005;28;20751;-85
2022/07/18 03:50:44;;;;;;;5.57;1.80;;;13.90;95.00;;;;;;5019360;28;20192;-87
2022/07/18 03:53:10;;;;;;;3.00;1.40;;;13.90;95.00;;;;;;5008642;28;20553;-86
2022/07/18 03:55:36;;;;;;;3.13;1.33;;;13.90;94.70;;;;;;5003800;28;20179;-85
2022/07/18 03:58:02;;;;;;;2.20;1.10;;;13.90;94.40;;;;;;4999997;28;20440;-87
2022/07/18 04:00:27;;;;;;;4.13;1.63;;;14.10;93.30;;;;;;5007298;28;20177;-86
2022/07/18 04:02:53;;;;;;;3.50;2.13;;;14.20;92.40;;;;;;5019564;28;20251;-86
2022/07/18 04:05:18;;;;;;;3.83;2.10;;;15.30;93.40;;;;;;5009936;28;20579;-85
2022/07/18 04:07:44;;;;;;;4.97;2.10;;;14.70;94.70;;;;;;5004652;28;20411;-86
2022/07/18 04:10:11;;;;;;;3.90;2.07;;;14.80;94.70;;;;;;5002866;28;20706;-85
2022/07/18 04:12:51;;;;;;;3.97;1.52;;;14.90;95.00;;;;;;5001146;28;20216;-85
2022/07/18 04:15:18;;;;;;;4.40;1.98;;;15.00;95.10;;;;;;4986030;28;20191;-84
2022/07/18 04:17:44;;;;;;;3.85;1.88;;;15.10;94.70;;;;;;4998309;28;20174;-84
2022/07/18 04:20:10;;;;;;;3.37;2.00;;;15.30;94.60;;;;;;5015601;28;20191;-84
2022/07/18 04:22:57;;;;;;;3.70;1.60;;;15.50;94.00;;;;;;4997730;28;20209;-85
2022/07/18 04:25:25;;;;;;;2.77;1.70;;;15.60;94.10;;;;;;5008586;28;20225;-86
2022/07/18 04:27:51;;;;;;;4.60;1.50;;;15.80;94.20;;;;;;5001758;28;20438;-84
2022/07/18 04:30:22;;;;;;;11.23;2.03;;;16.50;95.10;;;;;;4995955;28;20445;-86
2022/07/18 04:32:48;;;;;;;4.17;1.90;;;18.20;94.50;;;;;;5028582;28;20460;-86
2022/07/18 04:35:13;;;;;;;9.00;2.17;;;20.10;87.50;;;;;;4999040;28;20499;-86
2022/07/18 04:37:39;;;;;;;4.40;2.77;;;21.30;76.70;;;;;;4998667;28;20428;-85
2022/07/18 04:40:12;;;;;;;3.10;2.13;;;22.80;74.00;;;;;;5039469;27;20561;-85
2022/07/18 04:42:38;;;;;;;5.13;2.17;;;24.40;68.40;;;;;;5044725;27;20490;-87
2022/07/18 04:45:04;;;;;;;4.20;2.57;;;26.00;60.60;;;;;;5037373;27;20185;-83
2022/07/18 04:47:30;;;;;;;8.90;2.30;;;27.40;58.00;;;;;;5037373;27;20177;-85
2022/07/18 04:49:56;;;;;;;6.70;2.30;;;28.70;53.10;;;;;;5035202;27;20441;-86
2022/07/18 04:52:22;;;;;;;7.27;2.13;;;29.70;51.40;;;;;;5027994;27;20374;-84
2022/07/18 04:54:47;;;;;;;5.30;2.20;;;31.00;48.80;;;;;;5016995;27;20188;-86
2022/07/18 04:57:14;;;;;;;3.13;2.40;;;32.10;45.60;;;;;;5031547;27;20958;-83
2022/07/18 04:59:44;;;;;;;7.30;2.70;;;33.00;42.70;;;;;;5015251;27;20557;-83
2022/07/18 05:02:10;;;;;;;4.57;3.10;;;32.70;41.20;;;;;;5021427;27;22016;-84
2022/07/18 05:04:36;;;;;;;5.17;2.20;;;32.10;42.10;;;;;;4995007;27;20436;-86
2022/07/18 05:07:03;;;;;;;6.70;2.10;;;31.80;43.00;;;;;;5014278;27;20456;-85
2022/07/18 05:09:28;;;;;;;5.50;2.40;;;31.10;42.20;;;;;;5020780;27;20445;-87
2022/07/18 05:11:54;;;;;;;4.17;2.50;;;32.40;41.80;;;;;;5018497;27;20450;-85
2022/07/18 05:14:20;;;;;;;4.80;2.50;;;33.90;39.90;;;;;;4991464;27;20192;-85
2022/07/18 05:16:46;;;;;;;8.73;4.30;;;35.00;38.30;;;;;;5023276;27;20695;-88
2022/07/18 05:19:12;;;;;;;5.13;4.60;;;35.90;36.80;;;;;;5018780;27;21013;-87
2022/07/18 05:21:37;;;;;;;6.27;4.97;;;34.50;35.00;;;;;;5041947;27;20437;-87
2022/07/18 05:24:03;;;;;;;5.07;4.70;;;34.50;35.60;;;;;;5038240;27;20188;-85
2022/07/18 05:26:28;;;;;;;4.67;4.23;;;34.90;37.10;;;;;;5029497;27;20235;-87
2022/07/18 05:28:54;;;;;;;5.93;4.43;;;37.40;37.00;;;;;;5036399;27;20186;-85
2022/07/18 05:31:19;;;;;;;5.70;5.20;;;36.50;35.50;;;;;;5034288;27;20239;-85
2022/07/18 05:33:45;;;;;;;8.20;6.70;;;37.20;34.50;;;;;;5038115;27;20863;-87
2022/07/18 05:36:11;;;;;;;9.90;6.40;;;;;;;;;;5025233;27;20673;-85
2022/07/18 05:38:36;;;;;;;13.87;8.10;;;36.60;33.80;;;;;;5037811;27;20235;-86
2022/07/18 05:41:02;;;;;;;9.40;6.30;;;35.50;34.60;;;;;;5015771;27;20447;-86
2022/07/18 05:43:27;;;;;;;7.50;5.53;;;34.60;35.10;;;;;;5034318;27;20209;-87
2022/07/18 05:45:53;;;;;;;7.30;5.47;;;34.40;35.60;;;;;;5040173;27;20186;-87
2022/07/18 05:48:18;;;;;;;6.97;6.10;;;34.60;36.50;;;;;;5020063;27;20236;-86
2022/07/18 05:50:44;;;;;;;6.10;5.60;;;34.60;35.80;;;;;;5034894;27;20187;-85
2022/07/18 05:53:10;;;;;;;7.00;5.73;;;35.40;35.30;;;;;;5024777;27;20793;-88
2022/07/18 05:55:35;;;;;;;8.87;6.40;;;36.40;35.10;;;;;;5024469;27;20189;-87
2022/07/18 05:58:01;;;;;;;7.53;6.30;;;36.50;33.70;;;;;;5021174;27;20259;-87
2022/07/18 06:00:26;;;;;;;7.13;6.30;;;35.40;34.20;;;;;;5022299;27;20174;-86
2022/07/18 06:02:52;;;;;;;7.33;6.00;;;34.90;35.30;;;;;;5028317;27;20211;-87
2022/07/18 06:05:18;;;;;;;6.30;5.70;;;37.10;34.70;;;;;;5028139;27;20185;-88
2022/07/18 06:07:43;;;;;;;6.83;6.40;;;38.10;33.00;;;;;;5008904;28;20789;-87
2022/07/18 06:10:09;;;;;;;10.90;7.93;;;37.40;32.50;;;;;;5029101;27;20192;-87
2022/07/18 06:12:35;;;;;;;8.87;7.83;;;38.50;33.40;;;;;;5004536;27;20215;-85
2022/07/18 06:15:00;;;;;;;15.23;7.90;;;39.70;31.50;;;;;;5006334;27;20182;-87
2022/07/18 06:17:28;;;;;;;19.47;10.27;;;40.50;30.50;;;;;;5030739;27;20257;-89
2022/07/18 06:19:55;;;;;;;10.93;10.13;;;39.70;30.20;;;;;;5004496;27;20258;-87
2022/07/18 06:22:21;;;;;;;10.30;9.40;;;40.50;30.40;;;;;;5019535;27;20822;-88
2022/07/18 06:24:48;;;;;;;11.60;10.17;;;40.20;30.60;;;;;;5013355;27;20568;-87
2022/07/18 06:27:13;;;;;;;14.30;12.50;;;41.00;30.00;;;;;;5016941;27;21051;-86
2022/07/18 06:29:39;;;;;;;15.23;13.97;;;41.10;29.60;;;;;;5001195;27;20451;-87
2022/07/18 06:32:05;;;;;;;15.27;14.00;;;41.60;29.50;;;;;;5005612;27;20218;-87
2022/07/18 06:34:30;;;;;;;17.67;15.80;;;42.30;29.10;;;;;;5021284;27;20675;-87
2022/07/18 06:36:56;;;;;;;15.07;13.50;;;42.60;29.30;;;;;;5019107;27;20439;-87
2022/07/18 06:39:21;;;;;;;16.40;14.90;;;42.50;28.60;;;;;;5012912;28;20220;-85
2022/07/18 06:41:47;;;;;;;16.23;14.73;;;40.60;29.60;;;;;;5024380;27;20287;-87
2022/07/18 06:44:13;;;;;;;16.93;15.77;;;40.70;30.20;;;;;;5003806;28;20748;-88
2022/07/18 06:46:38;;;;;;;16.33;15.10;;;40.40;30.00;;;;;;5022800;27;20208;-86
2022/07/18 06:49:06;;;;;;;15.10;14.10;;;40.20;30.10;;;;;;5026166;27;21387;-87
2022/07/18 06:51:32;;;;;;;16.37;14.80;;;42.30;30.00;;;;;;5015099;28;20190;-88
2022/07/18 06:53:57;;;;;;;16.57;15.20;;;42.20;30.30;;;;;;5011209;27;20439;-87
2022/07/18 06:56:25;;;;;;;18.43;17.23;;;;;;;;;;5022218;27;20193;-85
2022/07/18 06:58:51;;;;;;;17.30;15.90;;;45.40;28.00;;;;;;5017544;27;20474;-86
2022/07/18 07:01:18;;;;;;;19.43;18.63;;;46.60;27.50;;;;;;5022240;27;20436;-86
2022/07/18 07:03:44;;;;;;;22.47;20.27;;;46.00;27.40;;;;;;5022490;27;20990;-85
2022/07/18 07:06:10;;;;;;;21.23;19.03;;;44.80;27.10;;;;;;5020828;27;20446;-87
2022/07/18 07:08:36;;;;;;;21.43;19.30;;;;;;;;;;5023001;27;20432;-86
2022/07/18 07:11:01;;;;;;;22.90;21.60;;;46.30;26.10;;;;;;5022407;27;20283;-86
2022/07/18 07:13:27;;;;;;;22.60;20.77;;;;;;;;;;5018764;27;20983;-87
2022/07/18 07:15:53;;;;;;;24.13;21.57;;;45.50;25.30;;;;;;5023956;27;20204;-86
2022/07/18 07:18:19;;;;;;;22.77;20.47;;;44.90;25.80;;;;;;5023470;27;20483;-87
2022/07/18 07:20:45;;;;;;;21.43;19.90;;;;;;;;;;5019346;27;20230;-87
2022/07/18 07:23:11;;;;;;;20.63;19.50;;;;;;;;;;5012750;27;20455;-86
2022/07/18 07:25:37;;;;;;;22.13;21.03;;;46.80;24.50;;;;;;5019716;27;20484;-87
2022/07/18 07:28:04;;;;;;;22.13;21.13;;;44.60;24.20;;;;;;5023494;27;20444;-85
2022/07/18 07:30:31;;;;;;;19.40;18.30;;;44.70;25.50;;;;;;5020563;27;20446;-87
2022/07/18 07:32:56;;;;;;;19.87;18.90;;;;;;;;;;5021256;27;20451;-87
2022/07/18 07:35:22;;;;;;;19.33;18.23;;;45.00;25.00;;;;;;5018450;27;20453;-88
2022/07/18 07:37:51;;;;;;;24.53;22.40;;;42.60;25.50;;;;;;5025878;27;20439;-86
2022/07/18 07:40:17;;;;;;;22.10;21.10;;;42.50;25.90;;;;;;5004685;27;20187;-88
2022/07/18 07:42:43;;;;;;;21.83;20.83;;;43.10;26.30;;;;;;5027548;27;20512;-88
2022/07/18 07:45:09;;;;;;;21.30;20.40;;;43.30;25.90;;;;;;5019672;27;20209;-87
2022/07/18 07:47:36;;;;;;;21.50;20.20;;;45.30;24.40;;;;;;5022209;27;20872;-85
2022/07/18 07:50:02;;;;;;;22.87;21.43;;;46.40;23.90;;;;;;5017289;27;20444;-89
2022/07/18 07:52:28;;;;;;;23.90;22.57;;;46.70;24.20;;;;;;5024959;27;20624;-87
2022/07/18 07:54:54;;;;;;;22.40;21.30;;;;;;;;;;5013576;27;21076;-85
2022/07/18 07:57:20;;;;;;;22.40;21.17;;;45.40;23.10;;;;;;5020660;27;20196;-87
2022/07/18 07:59:46;;;;;;;21.50;20.43;;;44.20;24.10;;;;;;5007014;28;20464;-85
2022/07/18 08:02:11;;;;;;;22.30;21.10;;;45.00;23.70;;;;;;5021900;27;21123;-88
2022/07/18 08:04:37;;;;;;;22.23;21.23;;;45.10;23.40;;;;;;5024386;27;20189;-86
2022/07/18 08:07:03;;;;;;;22.40;21.37;;;44.60;23.50;;;;;;5020144;27;20271;-87
2022/07/18 08:09:28;;;;;;;22.20;21.10;;;44.10;23.20;;;;;;5006905;28;20250;-88
2022/07/18 08:11:54;;;;;;;23.87;22.80;;;45.00;23.90;;;;;;5023176;27;20589;-87
2022/07/18 08:14:19;;;;;;;23.07;21.97;;;44.90;23.40;;;;;;5021716;27;20262;-87
2022/07/18 08:16:45;;;;;;;23.07;22.17;;;44.80;23.00;;;;;;5002950;28;20195;-87
2022/07/18 08:19:10;;;;;;;23.00;21.67;;;44.80;23.50;;;;;;5021747;27;20270;-88
2022/07/18 08:21:36;;;;;;;22.10;21.00;;;44.40;22.70;;;;;;5005647;28;20209;-86
2022/07/18 08:24:02;;;;;;;24.07;23.07;;;44.40;23.20;;;;;;5024051;27;20673;-88
2022/07/18 08:26:28;;;;;;;21.60;20.60;;;44.20;23.10;;;;;;5024744;27;20571;-86
2022/07/18 08:28:53;;;;;;;24.33;23.23;;;43.70;23.00;;;;;;5003603;27;20649;-86
2022/07/18 08:31:19;;;;;;;24.07;22.37;;;43.10;23.30;;;;;;5022645;27;20292;-87
2022/07/18 08:33:45;;;;;;;24.43;23.33;;;42.70;23.10;;;;;;5002927;28;20214;-87
2022/07/18 08:36:11;;;;;;;24.73;23.10;;;;;;;;;;5016933;28;20716;-85
2022/07/18 08:38:37;;;;;;;23.37;22.07;;;42.40;22.60;;;;;;5023758;27;20551;-87
2022/07/18 08:41:03;;;;;;;24.70;22.90;;;42.20;23.40;;;;;;5024223;27;20435;-88
2022/07/18 08:43:29;;;;;;;25.20;24.00;;;42.60;23.80;;;;;;5025685;27;20204;-87
2022/07/18 08:45:56;;;;;;;24.33;22.67;;;42.90;23.60;;;;;;5018053;27;20448;-85
2022/07/18 08:48:22;;;;;;;24.20;22.73;;;41.80;23.80;;;;;;5022999;27;20269;-86
2022/07/18 08:50:48;;;;;;;23.00;21.70;;;42.30;24.00;;;;;;5019936;27;20542;-86
2022/07/18 08:53:16;;;;;;;22.43;21.00;;;42.90;23.40;;;;;;5013061;28;20244;-87
2022/07/18 08:55:43;;;;;;;21.57;19.83;;;43.30;24.10;;;;;;5028352;27;20439;-87
2022/07/18 08:58:10;;;;;;;23.63;22.17;;;42.20;23.10;;;;;;5005544;27;21344;-86
2022/07/18 09:00:35;;;;;;;23.23;22.20;;;42.00;23.40;;;;;;5023258;27;20439;-85
2022/07/18 09:03:03;;;;;;;23.67;22.30;;;41.80;23.40;;;;;;5023088;27;20470;-88
2022/07/18 09:05:29;;;;;;;23.07;21.97;;;41.60;23.20;;;;;;5022814;27;20185;-87
2022/07/18 09:08:21;;;;;;;15.27;14.67;;;41.60;23.50;;;;;;5026975;27;20440;-87
2022/07/18 09:10:51;;;;;;;15.27;14.27;;;41.20;22.80;;;;;;5027209;27;20443;-85
2022/07/18 09:13:18;;;;;;;15.70;14.53;;;40.50;22.60;;;;;;5024012;27;20524;-86
2022/07/18 09:15:58;;;;;;;16.23;15.17;;;40.70;23.20;;;;;;5024146;27;20447;-86
2022/07/18 09:18:35;;;;;;;16.13;15.13;;;41.30;23.00;;;;;;5015404;28;20915;-87
2022/07/18 09:21:07;;;;;;;15.90;14.90;;;41.60;23.20;;;;;;5023646;27;20432;-85
2022/07/18 09:23:35;;;;;;;16.10;14.63;;;41.90;23.30;;;;;;5025703;27;20451;-87
2022/07/18 09:26:01;;;;;;;14.70;14.10;;;42.00;23.00;;;;;;5026814;27;20435;-87
2022/07/18 09:28:46;;;;;;;14.20;13.40;;;41.40;23.30;;;;;;5031275;27;20859;-86
2022/07/18 09:31:27;;;;;;;12.70;12.07;;;41.10;23.00;;;;;;5013424;28;20495;-86
2022/07/18 09:34:00;;;;;;;12.10;10.80;;;41.20;23.90;;;;;;5026095;27;20844;-86
2022/07/18 09:36:27;;;;;;;12.80;12.10;;;41.60;23.60;;;;;;5026017;27;20984;-87
2022/07/18 09:38:53;;;;;;;13.00;12.40;;;42.10;23.40;;;;;;5029849;27;20841;-87
2022/07/18 09:41:24;;;;;;;11.97;11.10;;;42.00;22.40;;;;;;5030915;27;20455;-87
2022/07/18 09:43:51;;;;;;;13.60;12.80;;;;;;;;;;5032208;27;20528;-85
2022/07/18 09:46:16;;;;;;;17.07;16.17;;;40.90;23.50;;;;;;5015650;28;20435;-86
2022/07/18 09:48:42;;;;;;;15.17;14.27;;;40.80;23.90;;;;;;5026086;27;20454;-87
2022/07/18 09:51:09;;;;;;;14.70;13.60;;;40.90;24.10;;;;;;5008954;27;20193;-86
2022/07/18 09:53:42;;;;;;;13.63;13.00;;;41.10;23.80;;;;;;5031940;27;20605;-86
2022/07/18 09:56:10;;;;;;;17.07;15.73;;;40.90;23.60;;;;;;5014720;27;20554;-85
2022/07/18 09:58:38;;;;;;;15.30;14.50;;;40.40;23.40;;;;;;5032041;27;20455;-89
2022/07/18 10:01:06;;;;;;;15.70;14.80;;;40.90;23.70;;;;;;5011169;27;20448;-88
2022/07/18 10:03:32;;;;;;;15.10;13.83;;;41.30;23.10;;;;;;5028515;27;20447;-87
2022/07/18 10:05:58;;;;;;;14.40;13.60;;;40.90;23.50;;;;;;5014335;27;20428;-87
2022/07/18 10:08:26;;;;;;;15.47;14.67;;;40.90;23.40;;;;;;5028412;27;20185;-87
2022/07/18 10:10:54;;;;;;;15.10;14.30;;;41.20;23.70;;;;;;5030527;27;20522;-86
2022/07/18 10:13:22;;;;;;;14.63;13.87;;;41.60;23.10;;;;;;5032856;27;20485;-88
2022/07/18 10:15:50;;;;;;;17.13;16.43;;;40.80;23.60;;;;;;5028756;27;20439;-86
2022/07/18 10:18:18;;;;;;;17.97;17.27;;;40.70;23.50;;;;;;5028714;27;20538;-86
2022/07/18 10:21:02;;;;;;;16.37;15.43;;;40.90;22.80;;;;;;5029645;27;20451;-86
2022/07/18 10:23:33;;;;;;;15.60;14.80;;;40.40;23.40;;;;;;5025948;27;20996;-86
2022/07/18 10:26:15;;;;;;;19.27;18.17;;;40.60;23.30;;;;;;5016231;27;20443;-86
2022/07/18 10:28:59;;;;;;;18.90;17.90;;;40.20;23.70;;;;;;5013518;28;20470;-86
2022/07/18 10:31:34;;;;;;;14.17;13.53;;;40.00;23.50;;;;;;5028193;27;20814;-85
2022/07/18 10:34:10;;;;;;;15.10;13.90;;;40.40;23.60;;;;;;5029153;27;20451;-86
2022/07/18 10:36:49;;;;;;;15.33;14.57;;;41.00;21.90;;;;;;5029462;27;20435;-87
2022/07/18 10:39:25;;;;;;;13.50;12.90;;;40.60;22.60;;;;;;5027742;27;21005;-86
2022/07/18 10:41:51;;;;;;;11.80;11.30;;;37.30;23.60;;;;;;5031713;27;21026;-86
2022/07/18 10:44:31;;;;;;;12.47;11.63;;;37.00;24.10;;;;;;5034523;27;20416;-86
2022/07/18 10:47:03;;;;;;;11.97;11.07;;;35.50;25.50;;;;;;5027678;27;20239;-85
2022/07/18 10:52:25;;;;;;;10.23;9.73;;;34.00;25.90;;;;;;5028149;27;20473;-86
2022/07/18 10:55:03;;;;;;;9.97;9.37;;;33.40;26.90;;;;;;5021834;27;20477;-85
2022/07/18 10:57:37;;;;;;;9.27;8.77;;;33.20;27.30;;;;;;5033974;27;20434;-84
2022/07/18 11:00:13;;;;;;;8.60;8.10;;;32.90;27.20;;;;;;5030813;27;21704;-84
2022/07/18 11:02:44;;;;;;;9.53;8.80;;;32.70;27.40;;;;;;5031227;27;20444;-84
2022/07/18 11:05:25;;;;;;;8.90;8.30;;;32.60;27.70;;;;;;5014820;27;20483;-84
2022/07/18 11:08:03;;;;;;;8.70;8.10;;;32.40;28.00;;;;;;5025468;27;20444;-82
2022/07/18 11:10:41;;;;;;;8.37;7.67;;;32.10;27.40;;;;;;5019574;28;20809;-84
2022/07/18 11:13:28;;;;;;;8.23;7.83;;;32.10;27.60;;;;;;5031124;27;20544;-83
2022/07/18 11:16:06;;;;;;;7.70;7.30;;;32.10;28.00;;;;;;5016739;27;20445;-86
2022/07/18 11:18:38;;;;;;;8.80;8.30;;;32.20;28.20;;;;;;5024472;27;20463;-85
2022/07/18 11:21:22;;;;;;;9.87;7.73;;;32.30;27.40;;;;;;5021384;27;20930;-84
2022/07/18 11:24:08;;;;;;;8.37;7.53;;;32.20;27.30;;;;;;5027070;27;20460;-85
2022/07/18 11:26:36;;;;;;;8.80;8.00;;;32.30;27.50;;;;;;5030968;27;20430;-85
2022/07/18 11:29:08;;;;;;;7.50;7.20;;;32.20;28.10;;;;;;5031956;27;20529;-83
2022/07/18 11:31:46;;;;;;;10.10;7.57;;;32.50;28.20;;;;;;5023028;27;20440;-84
2022/07/18 11:34:12;;;;;;;8.10;7.63;;;32.60;28.70;;;;;;5014430;27;20493;-85
2022/07/18 11:36:41;;;;;;;8.63;7.83;;;33.90;28.00;;;;;;5017942;27;20451;-83
2022/07/18 11:39:06;;;;;;;7.30;6.90;;;32.80;27.60;;;;;;5025810;27;20212;-83
2022/07/18 11:41:32;;;;;;;8.73;8.03;;;33.50;26.50;;;;;;5028005;27;20433;-85
2022/07/18 11:43:58;;;;;;;7.13;6.70;;;33.80;27.10;;;;;;5033013;27;20193;-85
2022/07/18 11:46:25;;;;;;;7.50;7.20;;;32.90;26.90;;;;;;5030122;27;20920;-84
2022/07/18 11:49:00;;;;;;;8.13;7.43;;;32.60;26.40;;;;;;5008795;27;20202;-84
2022/07/18 11:51:26;;;;;;;7.80;7.33;;;;;;;;;;5010636;28;20445;-85
2022/07/18 11:53:53;;;;;;;7.40;7.00;;;32.50;26.50;;;;;;5014401;27;20484;-85
2022/07/18 11:56:21;;;;;;;7.30;6.90;;;32.90;27.10;;;;;;5026806;27;20865;-85
2022/07/18 11:58:49;;;;;;;7.50;7.10;;;33.00;27.50;;;;;;5034174;27;20457;-84
2022/07/18 12:01:15;;;;;;;8.63;6.80;;;33.10;25.80;;;;;;5016466;28;20449;-84
2022/07/18 12:03:46;;;;;;;9.03;8.40;;;33.90;26.50;;;;;;5027209;27;20501;-84
2022/07/18 12:06:19;;;;;;;8.17;7.20;;;32.90;26.80;;;;;;5010459;28;20457;-84
2022/07/18 12:08:46;;;;;;;8.17;7.67;;;33.20;26.70;;;;;;5027953;27;20438;-83
2022/07/18 12:11:38;;;;;;;6.70;6.30;;;32.90;27.00;;;;;;5022744;27;21846;-82
2022/07/18 12:14:06;;;;;;;7.83;7.43;;;33.20;26.50;;;;;;5016063;27;20533;-86
2022/07/18 12:16:44;;;;;;;7.30;7.00;;;33.70;26.70;;;;;;5030514;27;20439;-86
2022/07/18 12:19:18;;;;;;;7.40;6.90;;;32.90;25.80;;;;;;5010307;27;20644;-86
2022/07/18 12:21:54;;;;;;;7.50;7.10;;;33.00;26.20;;;;;;5002585;28;20490;-83
2022/07/18 12:24:25;;;;;;;7.23;6.60;;;33.00;26.60;;;;;;5008447;28;20498;-86
2022/07/18 12:27:20;;;;;;;7.40;7.00;;;34.90;27.40;;;;;;5023153;27;20499;-86
2022/07/18 12:30:07;;;;;;;7.70;7.23;;;33.70;26.20;;;;;;5014641;27;20465;-84
2022/07/18 12:32:50;;;;;;;6.93;6.57;;;33.70;26.30;;;;;;5032621;27;20699;-86
2022/07/18 12:35:18;;;;;;;7.43;6.87;;;33.30;26.50;;;;;;5025898;27;20551;-83
2022/07/18 12:37:53;;;;;;;8.00;7.50;;;33.50;27.20;;;;;;5027497;27;20442;-87
2022/07/18 12:40:19;;;;;;;7.03;6.73;;;33.60;26.30;;;;;;5019942;28;20465;-86
2022/07/18 12:42:45;;;;;;;7.70;7.17;;;33.60;26.30;;;;;;5026566;27;20481;-85
2022/07/18 12:45:12;;;;;;;7.17;6.50;;;33.60;26.30;;;;;;5033122;27;20570;-86
2022/07/18 12:47:38;;;;;;;7.17;6.60;;;33.50;26.40;;;;;;5029087;27;20798;-85
2022/07/18 12:50:05;;;;;;;7.17;6.80;;;33.50;26.80;;;;;;5012113;27;20511;-86
2022/07/18 12:52:31;;;;;;;7.60;7.10;;;33.50;26.40;;;;;;5025315;27;20511;-85